Terminal Aerodrome Forecast
Issued by NWS

Current Version | Previous Version | Graphics & Text | Print | Product List | Glossary On
Versions: 1 2 3 4 5 6 7 8 9 10 11 12 13 14 15 16 17 18 19 20 21 22 23 24 25
784
FTUS41 KILN 202340
TAFLUK
TAF
KLUK 202340Z 2100/2124 11004KT P6SM BKN250
     FM210500 00000KT 5SM BR BKN250
      TEMPO 2108/2112 2SM BR
     FM211400 20012KT P6SM SCT040 BKN250
     FM212100 19010KT P6SM VCSH OVC040=

USA.gov is the U.S. government's official web portal to all federal, state and local government web resources and services.